KGUPKSMO

Guest
Details From KGUP - Gallup Muni
To KSMO - SANTA MONICA MUNI
Flight Number -
Tags decoded
Created
Modified
Stats Distance 498 nm / 923 km
Max Altitude 0 ft / 0 m
Waypoints 9
Social Downloads 0
Likes 0
Share VATSIM

Download

Looking for another format? Having issues loading an existing format? Contact us
Advertisement - Login to hide

Notes

Requested: KGUP INW DRK PKE TNP PSP HDF SLI KSMO

Route

KGUP INW DRK PKE TNP PSP HDF SLI KSMO

ID Type Via Altitude Latitude Longitude Leg Dist Tot Dist Heading (true) Name
O KGUP APT - 0 ft / 0 m 35.51106˚ -108.78930˚ - 0 nm - Gallup Muni
INW VOR - 0 ft / 0 m 35.06161˚ -110.79503˚ 101 nm 101 nm 255° / 254° WINSLOW VORTAC
DRK VOR - 0 ft / 0 m 34.70256˚ -112.48036˚ 85 nm 187 nm 256° / 255° DRAKE VORTAC
PKE VOR - 0 ft / 0 m 34.10200˚ -114.68208˚ 114 nm 302 nm 252° / 251° PARKER VORTAC
TNP VOR - 0 ft / 0 m 34.11222˚ -115.76992˚ 54 nm 356 nm 271° / 270° TWENTYNINE PALMS VORTAC
PSP VOR - 0 ft / 0 m 33.87003˚ -116.42978˚ 35 nm 392 nm 246° / 246° PALM SPRINGS VORTAC
HDF VOR - 0 ft / 0 m 33.77633˚ -117.18533˚ 38 nm 430 nm 262° / 261° HOMELAND VOR
SLI VOR - 0 ft / 0 m 33.78331˚ -118.05475˚ 43 nm 474 nm 271° / 270° SEAL BEACH VORTAC
O KSMO APT - 0 ft / 0 m 34.01585˚ -118.45133˚ 24 nm 498 nm 305° / 305° SANTA MONICA MUNI

Altitude Profile

Advertisement - Login to hide

Weather


0- 5 10 15 20 25 30 35+ Temperature / ° C

Clouds and Precipitation
Forecast for 2017-12-18 12:00 UTC. Updated 2 hours ago

Ground ~20,000 ft ~40,000 ft Winds

KGUP

Details ICAO KGUP (GUP)
Name Gallup Muni
Region United States
Timezone America/Denver (UTC-7.0)
Stats Elevation 6,472 ft / 1,973 m (AMSL)
Location 35.511058° -108.789303°
Runways 1
Magnetic Variation 9.484° E

METAR

KGUP 180953Z AUTO 00000KT 10SM CLR M10/M18 A3013 RMK AO2 SLP213 T11001178

Decode

TAF

KGUP 180525Z 1806/1906 VRB03KT P6SM SKC FM181700 35005KT P6SM SKC FM190100 VRB03KT P6SM FEW250

Decode

Departure Runways

ID Width Length Bearing (true) Bearing (mag) Surface Threshold Offset Overrun Length
06 100 ft / 30 m 7,301 ft / 2,225 m 73.81° 64.33° Asphalt 0 ft / 0 m 0 ft / 0 m
24 100 ft / 30 m 7,301 ft / 2,225 m 253.82° 244.34° Asphalt 0 ft / 0 m 0 ft / 0 m

KSMO

Details ICAO KSMO (SMO)
Name SANTA MONICA MUNI
Region United States
Timezone America/Los_Angeles (UTC-8.0)
Stats Elevation 177 ft / 54 m (AMSL)
Location 34.015847° -118.451329°
Runways 1
Magnetic Variation 12.028° E

METAR

KSMO 180951Z AUTO 01004KT 10SM CLR 14/M09 A3008 RMK AO2 SLP186 T01391094

Decode

TAF

TAF KSMO 180535Z 1806/1906 04006KT P6SM SKC FM182000 24008KT P6SM SKC FM190300 VRB03KT P6SM SKC

Decode

Destination Runways

ID Width Length Bearing (true) Bearing (mag) Surface Threshold Offset Overrun Length
03 151 ft / 46 m 4,978 ft / 1,517 m 44.45° 32.42° Asphalt 0 ft / 0 m 0 ft / 0 m
21 151 ft / 46 m 4,978 ft / 1,517 m 224.46° 212.43° Asphalt 0 ft / 0 m 0 ft / 0 m